createdAt,value
2017-02-11T00:01:07.396Z,99.41
2017-02-11T00:02:20.718Z,99.51
2017-02-11T00:03:33.761Z,99.6
2017-02-11T00:04:46.860Z,99.88
2017-02-11T00:05:59.938Z,99.51
2017-02-11T00:07:13.034Z,98.75
2017-02-11T00:08:26.107Z,99.7
2017-02-11T00:09:39.184Z,99.51
2017-02-11T00:10:52.238Z,99.51
2017-02-11T00:12:05.324Z,99.41
2017-02-11T00:13:17.632Z,98.75
2017-02-11T00:14:30.716Z,99.6
2017-02-11T00:15:43.769Z,99.51
2017-02-11T00:16:56.391Z,99.6
2017-02-11T00:18:09.088Z,99.32
2017-02-11T00:19:21.813Z,99.22
2017-02-11T00:20:34.869Z,98.75
2017-02-11T00:21:47.949Z,99.13
2017-02-11T00:23:01.019Z,98.75
2017-02-11T00:24:13.932Z,99.04
2017-02-11T00:25:27.111Z,98.75
2017-02-11T00:26:40.132Z,98.85
2017-02-11T00:27:53.158Z,99.41
2017-02-11T00:29:05.799Z,99.04
2017-02-11T00:30:18.824Z,99.51
2017-02-11T00:31:31.915Z,98.85
2017-02-11T00:32:45.011Z,99.6
2017-02-11T00:33:58.089Z,99.22
2017-02-11T00:35:11.132Z,99.13
2017-02-11T00:36:23.804Z,99.04
2017-02-11T00:37:36.920Z,98.85
2017-02-11T00:38:50.015Z,99.04
2017-02-11T00:40:02.691Z,99.13
2017-02-11T00:41:15.332Z,98.75
2017-02-11T00:42:28.383Z,98.75
2017-02-11T00:43:41.423Z,98.47
2017-02-11T00:44:54.446Z,98.47
2017-02-11T00:46:07.403Z,98.85
2017-02-11T00:47:20.077Z,98.75
2017-02-11T00:48:32.731Z,98.85
2017-02-11T00:49:45.753Z,98.38
2017-02-11T00:50:58.467Z,98.85
2017-02-11T00:52:11.605Z,98.19
2017-02-11T00:53:24.683Z,98.1
2017-02-11T00:54:37.817Z,98
2017-02-11T00:55:50.923Z,98.57
2017-02-11T00:57:04.227Z,98.28
2017-02-11T00:58:17.290Z,98.47
2017-02-11T00:59:30.304Z,98.38
2017-02-11T01:00:43.397Z,98.75
2017-02-11T01:01:56.486Z,98.38
2017-02-11T01:03:08.841Z,98.66
2017-02-11T01:04:21.150Z,98.38
2017-02-11T01:05:34.172Z,98.38
2017-02-11T01:06:47.229Z,98.28
2017-02-11T01:08:00.242Z,98.1
2017-02-11T01:09:12.534Z,97.72
2017-02-11T01:10:25.207Z,97.72
2017-02-11T01:11:38.226Z,98.28
2017-02-11T01:12:51.259Z,97.62
2017-02-11T01:14:04.336Z,97.34
2017-02-11T01:15:16.232Z,97.72
2017-02-11T01:16:29.321Z,97.72
2017-02-11T01:17:42.480Z,97.91
2017-02-11T01:18:55.504Z,98
2017-02-11T01:20:08.628Z,98
2017-02-11T01:21:21.694Z,98
2017-02-11T01:22:34.789Z,97.91
2017-02-11T01:23:47.826Z,97.81
2017-02-11T01:25:00.515Z,97.91
2017-02-11T01:26:12.818Z,98.28
2017-02-11T01:27:25.520Z,98.19
2017-02-11T01:28:38.579Z,97.53
2017-02-11T01:29:51.313Z,97.81
2017-02-11T01:31:03.972Z,97.81
2017-02-11T01:32:17.111Z,97.81
2017-02-11T01:33:30.154Z,97.34
2017-02-11T01:34:43.195Z,97.81
2017-02-11T01:35:56.267Z,97.72
2017-02-11T01:37:09.316Z,98
2017-02-11T01:38:22.402Z,98.19
2017-02-11T01:39:35.429Z,98.28
2017-02-11T01:40:48.357Z,98.38
2017-02-11T01:42:01.413Z,98.1
2017-02-11T01:43:13.784Z,97.81
2017-02-11T01:44:26.855Z,97.91
2017-02-11T01:45:39.943Z,97.72
2017-02-11T01:46:53.004Z,97.24
2017-02-11T01:48:06.052Z,97.34
2017-02-11T01:49:19.073Z,97.34
2017-02-11T01:50:31.748Z,97.05
2017-02-11T01:51:44.830Z,97.62
2017-02-11T01:52:57.895Z,97.91
2017-02-11T01:54:10.992Z,97.53
2017-02-11T01:55:23.659Z,97.43
2017-02-11T01:56:36.745Z,97.43
2017-02-11T01:57:49.772Z,97.34
2017-02-11T01:59:02.840Z,97.15
2017-02-11T02:00:15.554Z,96.86
2017-02-11T02:01:28.672Z,97.15
2017-02-11T02:02:41.704Z,97.34
2017-02-11T02:03:54.721Z,96.86
2017-02-11T02:05:07.818Z,97.15
2017-02-11T02:06:20.814Z,97.05
2017-02-11T02:07:33.952Z,97.24
2017-02-11T02:08:46.991Z,96.96
2017-02-11T02:10:00.034Z,97.05
2017-02-11T02:11:13.059Z,96.86
2017-02-11T02:12:26.121Z,96.96
2017-02-11T02:13:39.395Z,97.05
2017-02-11T02:14:52.534Z,97.05
2017-02-11T02:16:05.205Z,96.58
2017-02-11T02:17:17.926Z,96.58
2017-02-11T02:18:30.949Z,96.96
2017-02-11T02:19:43.636Z,96.96
2017-02-11T02:20:56.714Z,96.49
2017-02-11T02:22:09.379Z,96.39
2017-02-11T02:23:22.443Z,96.3
2017-02-11T02:24:35.531Z,96.39
2017-02-11T02:25:48.621Z,96.39
2017-02-11T02:27:01.647Z,96.3
2017-02-11T02:28:14.316Z,96.49
2017-02-11T02:29:27.387Z,96.39
2017-02-11T02:30:40.493Z,95.92
2017-02-11T02:31:53.597Z,95.92
2017-02-11T02:33:06.243Z,95.92
2017-02-11T02:34:18.931Z,95.73
2017-02-11T02:35:31.992Z,96.01
2017-02-11T02:36:45.068Z,96.3
2017-02-11T02:37:57.783Z,96.2
2017-02-11T02:39:10.490Z,96.2
2017-02-11T02:40:23.207Z,96.11
2017-02-11T02:41:36.297Z,95.64
2017-02-11T02:42:49.315Z,94.79
2017-02-11T02:44:02.070Z,95.45
2017-02-11T02:45:15.158Z,95.54
2017-02-11T02:46:28.405Z,95.73
2017-02-11T02:47:41.500Z,95.54
2017-02-11T02:48:54.588Z,95.45
2017-02-11T02:50:07.253Z,95.26
2017-02-11T02:51:20.339Z,95.45
2017-02-11T02:52:33.477Z,95.26
2017-02-11T02:53:46.510Z,94.79
2017-02-11T02:54:59.551Z,94.22
2017-02-11T02:56:12.556Z,94.51
2017-02-11T02:57:25.648Z,94.51
2017-02-11T02:58:38.775Z,94.79
2017-02-11T02:59:51.844Z,94.6
2017-02-11T03:01:04.914Z,95.17
2017-02-11T03:02:17.949Z,95.45
2017-02-11T03:03:31.028Z,95.17
2017-02-11T03:04:44.078Z,94.7
2017-02-11T03:05:57.150Z,94.41
2017-02-11T03:07:10.252Z,94.51
2017-02-11T03:08:23.306Z,94.32
2017-02-11T03:09:36.356Z,93.94
2017-02-11T03:10:49.378Z,93.84
2017-02-11T03:12:02.437Z,93.56
2017-02-11T03:13:14.605Z,93.09
2017-02-11T03:14:27.639Z,93.47
2017-02-11T03:15:40.787Z,93.66
2017-02-11T03:16:53.845Z,93.47
2017-02-11T03:18:06.955Z,93.18
2017-02-11T03:19:19.230Z,93.28
2017-02-11T03:20:32.258Z,93.84
2017-02-11T03:21:45.298Z,94.22
2017-02-11T03:22:58.323Z,93.47
2017-02-11T03:24:11.423Z,92.9
2017-02-11T03:25:24.476Z,92.99
2017-02-11T03:26:37.562Z,93.28
2017-02-11T03:27:50.616Z,93.47
2017-02-11T03:29:03.711Z,93.18
2017-02-11T03:30:16.406Z,92.8
2017-02-11T03:31:29.478Z,93.18
2017-02-11T03:32:42.476Z,93.56
2017-02-11T03:33:55.219Z,93.56
2017-02-11T03:35:08.293Z,92.43
2017-02-11T03:36:21.444Z,92.9
2017-02-11T03:37:34.493Z,92.8
2017-02-11T03:38:47.621Z,93.37
2017-02-11T03:40:00.926Z,92.14
2017-02-11T03:41:13.221Z,92.05
2017-02-11T03:42:26.316Z,91.96
2017-02-11T03:43:39.355Z,92.24
2017-02-11T03:44:52.350Z,92.05
2017-02-11T03:46:05.372Z,91.96
2017-02-11T03:47:18.076Z,92.52
2017-02-11T03:48:31.071Z,92.9
2017-02-11T03:49:44.168Z,92.43
2017-02-11T03:50:57.169Z,92.14
2017-02-11T03:52:10.236Z,92.24
2017-02-11T03:53:23.340Z,92.33
2017-02-11T03:54:36.457Z,92.05
2017-02-11T03:55:49.139Z,91.39
2017-02-11T03:57:01.796Z,91.2
2017-02-11T03:58:14.476Z,91.49
2017-02-11T03:59:27.560Z,91.2
2017-02-11T04:00:40.610Z,91.3
2017-02-11T04:01:53.632Z,91.3
2017-02-11T04:03:06.275Z,90.54
2017-02-11T04:04:18.660Z,90.92
2017-02-11T04:05:31.739Z,90.45
2017-02-11T04:06:44.809Z,90.54
2017-02-11T04:07:57.906Z,90.54
2017-02-11T04:09:10.563Z,91.01
2017-02-11T04:10:23.684Z,91.39
2017-02-11T04:11:36.747Z,90.73
2017-02-11T04:12:49.812Z,91.58
2017-02-11T04:14:02.809Z,91.96
2017-02-11T04:15:15.854Z,91.58
2017-02-11T04:16:28.952Z,91.58
2017-02-11T04:17:42.047Z,91.86
2017-02-11T04:18:55.101Z,92.14
2017-02-11T04:20:08.145Z,92.05
2017-02-11T04:21:20.840Z,91.49
2017-02-11T04:22:33.944Z,91.86
2017-02-11T04:23:47.020Z,91.67
2017-02-11T04:25:00.098Z,91.86
2017-02-11T04:26:12.769Z,91.3
2017-02-11T04:27:25.839Z,91.77
2017-02-11T04:28:38.967Z,91.86
2017-02-11T04:29:52.036Z,92.05
2017-02-11T04:31:05.132Z,91.77
2017-02-11T04:32:17.774Z,91.86
2017-02-11T04:33:30.844Z,92.05
2017-02-11T04:34:44.158Z,92.33
2017-02-11T04:35:57.203Z,92.43
2017-02-11T04:37:09.866Z,92.8
2017-02-11T04:38:22.512Z,92.52
2017-02-11T04:39:35.235Z,92.33
2017-02-11T04:40:48.263Z,92.52
2017-02-11T04:42:01.370Z,92.61
2017-02-11T04:43:14.037Z,92.9
2017-02-11T04:44:27.181Z,92.24
2017-02-11T04:45:40.195Z,93.28
2017-02-11T04:46:53.281Z,92.43
2017-02-11T04:48:06.420Z,92.43
2017-02-11T04:49:19.503Z,92.8
2017-02-11T04:50:32.578Z,92.33
2017-02-11T04:51:45.951Z,92.33
2017-02-11T04:52:58.621Z,92.24
2017-02-11T04:54:11.724Z,92.9
2017-02-11T04:55:24.789Z,93.09
2017-02-11T04:56:37.818Z,93.37
2017-02-11T04:57:50.492Z,93.28
2017-02-11T04:59:03.557Z,93.56
2017-02-11T05:00:16.235Z,93.18
2017-02-11T05:01:28.924Z,92.52
2017-02-11T05:02:42.053Z,92.43
2017-02-11T05:03:55.151Z,92.14
2017-02-11T05:05:08.260Z,92.24
2017-02-11T05:06:20.543Z,92.8
2017-02-11T05:07:33.654Z,92.14
2017-02-11T05:08:46.786Z,92.52
2017-02-11T05:09:59.838Z,92.33
2017-02-11T05:11:12.862Z,91.86
2017-02-11T05:12:25.925Z,91.49
2017-02-11T05:13:38.965Z,91.01
2017-02-11T05:14:52.011Z,91.67
2017-02-11T05:16:05.125Z,91.67
2017-02-11T05:17:17.799Z,91.86
2017-02-11T05:18:30.871Z,91.44
2017-02-11T05:19:43.906Z,91.72
2017-02-11T05:20:57.019Z,92.33
2017-02-11T05:22:09.674Z,91.82
2017-02-11T05:23:22.776Z,92
2017-02-11T05:24:35.849Z,92.38
2017-02-11T05:25:48.891Z,92.85
2017-02-11T05:27:01.981Z,92.66
2017-02-11T05:28:14.636Z,93.23
2017-02-11T05:29:27.709Z,93.04
2017-02-11T05:30:40.802Z,92.29
2017-02-11T05:31:53.840Z,92.47
2017-02-11T05:33:06.943Z,91.72
2017-02-11T05:34:20.042Z,92
2017-02-11T05:35:33.066Z,92.1
2017-02-11T05:36:46.107Z,92.85
2017-02-11T05:37:59.177Z,92.76
2017-02-11T05:39:11.879Z,93.04
2017-02-11T05:40:24.818Z,92.57
2017-02-11T05:41:37.925Z,92
2017-02-11T05:42:51.002Z,92.1
2017-02-11T05:44:04.090Z,91.91
2017-02-11T05:45:17.183Z,90.97
2017-02-11T05:46:30.300Z,91.82
2017-02-11T05:47:43.319Z,91.44
2017-02-11T05:48:56.366Z,91.35
2017-02-11T05:50:09.035Z,91.72
2017-02-11T05:51:21.781Z,91.25
2017-02-11T05:52:34.867Z,91.35
2017-02-11T05:53:47.965Z,91.63
2017-02-11T05:55:00.981Z,91.67
2017-02-11T05:56:13.277Z,91.39
2017-02-11T05:57:26.363Z,91.39
2017-02-11T05:58:39.450Z,91.86
2017-02-11T05:59:52.527Z,90.16
2017-02-11T06:01:05.575Z,89.69
2017-02-11T06:02:18.641Z,89.69
2017-02-11T06:03:31.708Z,90.16
2017-02-11T06:04:44.436Z,89.93
2017-02-11T06:05:57.555Z,90.45
2017-02-11T06:07:10.213Z,90.54
2017-02-11T06:08:23.301Z,90.26
2017-02-11T06:09:36.394Z,89.22
2017-02-11T06:10:49.469Z,89.03
2017-02-11T06:12:02.527Z,88.28
2017-02-11T06:13:14.818Z,88.93
2017-02-11T06:14:27.902Z,88.46
2017-02-11T06:15:40.954Z,89.31
2017-02-11T06:16:53.993Z,89.4
2017-02-11T06:18:06.991Z,89.12
2017-02-11T06:19:20.072Z,89.12
2017-02-11T06:20:33.213Z,88.09
2017-02-11T06:21:46.278Z,87.9
2017-02-11T06:22:59.397Z,88.37
2017-02-11T06:24:12.481Z,88.37
2017-02-11T06:25:25.483Z,87.52
2017-02-11T06:26:38.111Z,88.46
2017-02-11T06:27:51.193Z,88.28
2017-02-11T06:29:04.262Z,88.37
2017-02-11T06:30:16.532Z,88.37
2017-02-11T06:31:29.628Z,87.9
2017-02-11T06:32:42.716Z,86.48
2017-02-11T06:33:55.811Z,86.86
2017-02-11T06:35:08.857Z,86.38
2017-02-11T06:36:21.513Z,86.95
2017-02-11T06:37:34.627Z,87.14
2017-02-11T06:38:47.687Z,87.05
2017-02-11T06:40:00.769Z,86.76
2017-02-11T06:41:13.843Z,87.05
2017-02-11T06:42:26.960Z,86.95
2017-02-11T06:43:40.027Z,87.05
2017-02-11T06:44:53.148Z,86.29
2017-02-11T06:46:06.449Z,86.86
2017-02-11T06:47:19.497Z,86.86
2017-02-11T06:48:32.555Z,86.38
2017-02-11T06:49:45.693Z,86.57
2017-02-11T06:50:58.357Z,86.95
2017-02-11T06:52:10.313Z,86.57
2017-02-11T06:53:23.346Z,87.14
2017-02-11T06:54:36.404Z,86.76
2017-02-11T06:55:49.479Z,85.91
2017-02-11T06:57:02.526Z,85.72
2017-02-11T06:58:15.196Z,86.48
2017-02-11T06:59:27.873Z,86.57
2017-02-11T07:00:40.896Z,87.05
2017-02-11T07:01:53.921Z,86.86
2017-02-11T07:03:06.597Z,86.57
2017-02-11T07:04:19.275Z,85.72
2017-02-11T07:05:31.957Z,85.91
2017-02-11T07:06:44.948Z,85.63
2017-02-11T07:07:58.020Z,85.63
2017-02-11T07:09:10.693Z,85.72
2017-02-11T07:10:23.369Z,85.91
2017-02-11T07:11:36.483Z,85.82
2017-02-11T07:12:49.779Z,85.72
2017-02-11T07:14:02.828Z,85.72
2017-02-11T07:15:15.946Z,86.1
2017-02-11T07:16:29.029Z,86.76
2017-02-11T07:17:42.168Z,86.57
2017-02-11T07:18:55.247Z,86.48
2017-02-11T07:20:08.285Z,85.91
2017-02-11T07:21:21.425Z,85.35
2017-02-11T07:22:34.099Z,85.06
2017-02-11T07:23:47.173Z,85.06
2017-02-11T07:25:00.264Z,85.44
2017-02-11T07:26:12.961Z,85.82
2017-02-11T07:27:25.655Z,86.01
2017-02-11T07:28:38.739Z,85.82
2017-02-11T07:29:51.779Z,85.63
2017-02-11T07:31:04.954Z,85.72
2017-02-11T07:32:17.644Z,85.53
2017-02-11T07:33:30.339Z,84.88
2017-02-11T07:34:43.405Z,84.69
2017-02-11T07:35:56.424Z,84.78
2017-02-11T07:37:09.085Z,84.88
2017-02-11T07:38:21.734Z,84.78
2017-02-11T07:39:34.390Z,84.88
2017-02-11T07:40:47.489Z,84.59
2017-02-11T07:42:00.533Z,84.78
2017-02-11T07:43:13.606Z,83.93
2017-02-11T07:44:26.632Z,83.36
2017-02-11T07:45:39.927Z,82.7
2017-02-11T07:46:53.065Z,82.42
2017-02-11T07:48:06.095Z,83.17
2017-02-11T07:49:18.779Z,82.8
2017-02-11T07:50:31.500Z,82.51
2017-02-11T07:51:44.525Z,82.89
2017-02-11T07:52:57.621Z,82.8
2017-02-11T07:54:10.738Z,82.89
2017-02-11T07:55:23.437Z,83.17
2017-02-11T07:56:36.548Z,83.46
2017-02-11T07:57:49.628Z,83.46
2017-02-11T07:59:02.671Z,83.08
2017-02-11T08:00:15.781Z,83.36
2017-02-11T08:01:28.881Z,82.89
2017-02-11T08:02:42.008Z,82.23
2017-02-11T08:03:55.088Z,82.23
2017-02-11T08:05:08.232Z,81.76
2017-02-11T08:06:21.289Z,81.57
2017-02-11T08:07:34.343Z,81.2
2017-02-11T08:08:47.410Z,81.2
2017-02-11T08:10:00.436Z,81.76
2017-02-11T08:11:13.558Z,81.38
2017-02-11T08:12:26.187Z,81.67
2017-02-11T08:13:39.309Z,80.91
2017-02-11T08:14:52.357Z,81.1
2017-02-11T08:16:05.448Z,80.44
2017-02-11T08:17:18.516Z,80.44
2017-02-11T08:18:31.568Z,80.91
2017-02-11T08:19:44.594Z,81.2
2017-02-11T08:20:57.700Z,80.53
2017-02-11T08:22:10.792Z,80.63
2017-02-11T08:23:24.115Z,80.91
2017-02-11T08:24:37.166Z,81.1
2017-02-11T08:25:50.281Z,81.1
2017-02-11T08:27:03.319Z,80.15
2017-02-11T08:28:16.405Z,79.87
2017-02-11T08:29:29.479Z,79.97
2017-02-11T08:30:42.138Z,80.06
2017-02-11T08:31:55.210Z,80.06
2017-02-11T08:33:08.254Z,80.82
2017-02-11T08:34:21.283Z,80.91
2017-02-11T08:35:34.323Z,80.53
2017-02-11T08:36:47.418Z,80.34
2017-02-11T08:38:00.501Z,80.34
2017-02-11T08:39:13.583Z,80.25
2017-02-11T08:40:25.881Z,80.06
2017-02-11T08:41:38.936Z,79.4
2017-02-11T08:42:52.004Z,79.3
2017-02-11T08:44:05.068Z,79.87
2017-02-11T08:45:17.800Z,80.34
2017-02-11T08:46:30.811Z,79.68
2017-02-11T08:47:43.881Z,79.87
2017-02-11T08:48:56.912Z,79.3
2017-02-11T08:50:09.999Z,79.3
2017-02-11T08:51:22.680Z,79.97
2017-02-11T08:52:35.740Z,79.59
2017-02-11T08:53:48.802Z,79.59
2017-02-11T08:55:01.450Z,79.4
2017-02-11T08:56:14.521Z,79.11
2017-02-11T08:57:27.541Z,78.92
2017-02-11T08:58:40.684Z,78.78
2017-02-11T08:59:53.783Z,79.06
2017-02-11T09:01:06.879Z,79.44
2017-02-11T09:02:19.887Z,79.25
2017-02-11T09:03:33.004Z,79.25
2017-02-11T09:04:45.667Z,79.16
2017-02-11T09:05:58.746Z,78.21
2017-02-11T09:07:11.391Z,77.93
2017-02-11T09:08:24.028Z,77.36
2017-02-11T09:09:37.159Z,77.17
2017-02-11T09:10:50.160Z,76.89
2017-02-11T09:12:03.223Z,77.17
2017-02-11T09:13:15.912Z,77.55
2017-02-11T09:14:28.926Z,77.26
2017-02-11T09:15:42.040Z,77.55
2017-02-11T09:16:55.057Z,77.64
2017-02-11T09:18:08.147Z,76.7
2017-02-11T09:19:21.249Z,76.51
2017-02-11T09:20:33.936Z,76.89
2017-02-11T09:21:46.984Z,76.7
2017-02-11T09:23:00.044Z,77.08
2017-02-11T09:24:13.126Z,77.45
2017-02-11T09:25:26.208Z,76.79
2017-02-11T09:26:39.273Z,76.23
2017-02-11T09:27:52.323Z,75.85
2017-02-11T09:29:05.434Z,76.14
2017-02-11T09:30:18.537Z,75.95
2017-02-11T09:31:31.606Z,76.04
2017-02-11T09:32:44.728Z,76.79
2017-02-11T09:33:57.767Z,77.08
2017-02-11T09:35:10.856Z,76.79
2017-02-11T09:36:23.916Z,76.79
2017-02-11T09:37:36.975Z,76.04
2017-02-11T09:38:50.042Z,76.04
2017-02-11T09:40:03.130Z,76.42
2017-02-11T09:41:14.627Z,76.32
2017-02-11T09:42:27.725Z,75.66
2017-02-11T09:43:40.793Z,75.95
2017-02-11T09:44:53.838Z,76.14
2017-02-11T09:46:06.919Z,76.23
2017-02-11T09:47:19.203Z,75.57
2017-02-11T09:48:32.275Z,75
2017-02-11T09:49:45.283Z,74.81
2017-02-11T09:50:58.328Z,75.38
2017-02-11T09:52:11.439Z,75.57
2017-02-11T09:53:24.532Z,75.47
2017-02-11T09:54:37.223Z,75.57
2017-02-11T09:55:50.327Z,75.85
2017-02-11T09:57:03.471Z,75.76
2017-02-11T09:58:16.492Z,75.95
2017-02-11T09:59:29.663Z,75.38
2017-02-11T10:01:04.512Z,75
2017-02-11T10:02:17.570Z,75.47
2017-02-11T10:03:29.858Z,75.28
2017-02-11T10:04:42.949Z,75.47
2017-02-11T10:05:55.673Z,75.76
2017-02-11T10:07:08.800Z,76.51
2017-02-11T10:08:21.488Z,75.95
2017-02-11T10:09:34.153Z,75.76
2017-02-11T10:10:47.224Z,76.04
2017-02-11T10:12:00.327Z,75.85
2017-02-11T10:13:13.370Z,75.85
2017-02-11T10:14:26.538Z,76.51
2017-02-11T10:15:39.209Z,76.04
2017-02-11T10:16:52.262Z,76.14
2017-02-11T10:18:05.338Z,75.89
2017-02-11T10:19:18.049Z,75.95
2017-02-11T10:20:31.102Z,76.26
2017-02-11T10:21:44.191Z,76.07
2017-02-11T10:22:57.525Z,75.98
2017-02-11T10:24:10.183Z,75.89
2017-02-11T10:25:23.250Z,76.17
2017-02-11T10:26:35.982Z,76.36
2017-02-11T10:27:49.053Z,75.89
2017-02-11T10:29:02.142Z,75.89
2017-02-11T10:30:14.857Z,75.51
2017-02-11T10:31:27.930Z,75.32
2017-02-11T10:32:40.982Z,75.23
2017-02-11T10:33:54.038Z,75.51
2017-02-11T10:35:07.141Z,75.42
2017-02-11T10:36:20.156Z,75.32
2017-02-11T10:37:33.218Z,74.95
2017-02-11T10:38:46.355Z,74.95
2017-02-11T10:39:59.055Z,74.38
2017-02-11T10:41:12.090Z,73.9
2017-02-11T10:42:24.842Z,74.09
2017-02-11T10:43:37.910Z,74.95
2017-02-11T10:44:51.291Z,75.32
2017-02-11T10:46:04.381Z,75.79
2017-02-11T10:47:17.474Z,75.7
2017-02-11T10:48:30.546Z,74.76
2017-02-11T10:49:43.588Z,74.38
2017-02-11T10:50:56.771Z,74
2017-02-11T10:52:09.492Z,73.81
2017-02-11T10:53:22.194Z,74
2017-02-11T10:54:35.294Z,74.38
2017-02-11T10:55:48.433Z,74.85
2017-02-11T10:57:01.490Z,75.04
2017-02-11T10:58:14.169Z,74.95
2017-02-11T10:59:27.210Z,74.38
2017-02-11T11:00:40.313Z,74.47
2017-02-11T11:01:53.625Z,74.19
2017-02-11T11:03:06.704Z,74.19
2017-02-11T11:04:19.771Z,74.09
2017-02-11T11:05:32.415Z,73.62
2017-02-11T11:06:45.471Z,73.62
2017-02-11T11:07:58.583Z,73.62
2017-02-11T11:09:11.702Z,73.62
2017-02-11T11:10:24.784Z,73.71
2017-02-11T11:11:37.446Z,72.77
2017-02-11T11:12:50.467Z,72.58
2017-02-11T11:14:03.566Z,72.99
2017-02-11T11:15:16.693Z,72.14
2017-02-11T11:16:29.700Z,72.24
2017-02-11T11:17:43.029Z,72.05
2017-02-11T11:18:56.093Z,71.2
2017-02-11T11:20:08.768Z,71.39
2017-02-11T11:21:21.869Z,71.11
2017-02-11T11:22:34.902Z,71.67
2017-02-11T11:23:47.964Z,71.86
2017-02-11T11:25:01.058Z,71.2
2017-02-11T11:26:13.717Z,70.63
2017-02-11T11:27:26.764Z,71.48
2017-02-11T11:28:39.844Z,71.58
2017-02-11T11:29:52.948Z,71.95
2017-02-11T11:31:06.027Z,71.86
2017-02-11T11:32:19.123Z,70.73
2017-02-11T11:33:32.173Z,70.44
2017-02-11T11:34:45.271Z,69.87
2017-02-11T11:35:58.366Z,69.87
2017-02-11T11:37:11.410Z,70.16
2017-02-11T11:38:24.478Z,69.68
2017-02-11T11:39:37.742Z,69.97
2017-02-11T11:40:50.801Z,70.44
2017-02-11T11:42:03.894Z,70.16
2017-02-11T11:43:17.042Z,70.16
2017-02-11T11:44:29.789Z,70.06
2017-02-11T11:45:42.839Z,69.87
2017-02-11T11:46:55.903Z,69.68
2017-02-11T11:48:08.987Z,70.35
2017-02-11T11:49:22.042Z,70.06
2017-02-11T11:50:35.160Z,70.92
2017-02-11T11:51:48.194Z,70.73
2017-02-11T11:53:01.285Z,71.11
2017-02-11T11:54:14.000Z,70.54
2017-02-11T11:55:26.675Z,70.35
2017-02-11T11:56:39.401Z,69.97
2017-02-11T11:57:52.079Z,69.87
2017-02-11T11:59:05.156Z,70.06
2017-02-11T12:00:18.257Z,70.44
2017-02-11T12:01:31.324Z,70.63
2017-02-11T12:02:44.383Z,70.73
2017-02-11T12:03:57.466Z,70.35
2017-02-11T12:05:10.158Z,70.06
2017-02-11T12:06:22.833Z,69.78
2017-02-11T12:07:35.846Z,70.16
2017-02-11T12:08:48.891Z,70.63
2017-02-11T12:10:01.946Z,70.25
2017-02-11T12:11:14.266Z,70.73
2017-02-11T12:12:26.949Z,70.92
2017-02-11T12:13:39.601Z,70.63
2017-02-11T12:14:52.666Z,70.73
2017-02-11T12:16:05.363Z,70.35
2017-02-11T12:17:18.483Z,70.63
2017-02-11T12:18:31.203Z,70.92
2017-02-11T12:19:44.318Z,70.92
2017-02-11T12:20:57.345Z,71.2
2017-02-11T12:22:10.080Z,71.3
2017-02-11T12:23:22.709Z,71.67
2017-02-11T12:24:35.347Z,71.2
2017-02-11T12:25:48.393Z,71.01
2017-02-11T12:27:01.515Z,71.39
2017-02-11T12:28:14.559Z,72.14
2017-02-11T12:29:27.680Z,71.95
2017-02-11T12:30:40.729Z,72.62
2017-02-11T12:31:53.797Z,71.67
2017-02-11T12:33:06.860Z,71.48
2017-02-11T12:34:19.931Z,71.39
2017-02-11T12:35:32.941Z,71.86
2017-02-11T12:36:46.072Z,72.05
2017-02-11T12:37:58.393Z,72.24
2017-02-11T12:39:10.346Z,71.77
2017-02-11T12:40:23.409Z,72.05
2017-02-11T12:41:36.506Z,71.86
2017-02-11T12:42:49.513Z,72.14
2017-02-11T12:44:02.580Z,72.24
2017-02-11T12:45:15.703Z,71.95
2017-02-11T12:46:28.728Z,72.14
2017-02-11T12:47:41.793Z,71.86
2017-02-11T12:48:54.452Z,72.24
2017-02-11T12:50:07.553Z,72.99
2017-02-11T12:51:20.624Z,73.09
2017-02-11T12:52:33.683Z,73.09
2017-02-11T12:53:46.776Z,72.58
2017-02-11T12:54:59.861Z,72.58
2017-02-11T12:56:12.924Z,72.96
2017-02-11T12:57:25.627Z,73.14
2017-02-11T12:58:38.761Z,73.71
2017-02-11T12:59:51.820Z,73.9
2017-02-11T13:01:04.848Z,74
2017-02-11T13:02:17.469Z,74.28
2017-02-11T13:03:30.164Z,74.38
2017-02-11T13:04:43.204Z,74.28
2017-02-11T13:05:56.267Z,73.9
2017-02-11T13:07:09.356Z,74.09
2017-02-11T13:08:22.423Z,73.71
2017-02-11T13:09:35.071Z,73.81
2017-02-11T13:10:48.190Z,73.52
2017-02-11T13:12:01.222Z,74.09
2017-02-11T13:13:14.299Z,74.19
2017-02-11T13:14:27.383Z,73.81
2017-02-11T13:15:40.428Z,73.24
2017-02-11T13:16:53.511Z,73.24
2017-02-11T13:18:06.167Z,73.52
2017-02-11T13:19:18.511Z,73.71
2017-02-11T13:20:30.793Z,74.19
2017-02-11T13:21:43.911Z,74.88
2017-02-11T13:22:57.000Z,74.22
2017-02-11T13:24:10.044Z,73.56
2017-02-11T13:25:23.131Z,73.94
2017-02-11T13:26:36.204Z,73.94
2017-02-11T13:27:49.249Z,73.18
2017-02-11T13:29:02.306Z,72.9
2017-02-11T13:30:14.560Z,72.43
2017-02-11T13:31:27.637Z,72.71
2017-02-11T13:32:40.778Z,72.9
2017-02-11T13:33:53.841Z,73.56
2017-02-11T13:35:06.583Z,74.22
2017-02-11T13:36:19.620Z,73.75
2017-02-11T13:37:32.680Z,73.47
2017-02-11T13:38:45.349Z,72.71
2017-02-11T13:39:58.373Z,72.52
2017-02-11T13:41:11.424Z,72.43
2017-02-11T13:42:24.508Z,72.9
2017-02-11T13:43:37.153Z,72.8
2017-02-11T13:44:50.273Z,72.86
2017-02-11T13:46:03.357Z,73.28
2017-02-11T13:47:16.505Z,73.66
2017-02-11T13:48:29.586Z,74.04
2017-02-11T13:49:42.695Z,73.47
2017-02-11T13:50:54.982Z,73.28
2017-02-11T13:52:07.654Z,73.85
2017-02-11T13:53:20.362Z,74.13
2017-02-11T13:54:33.459Z,73.56
2017-02-11T13:55:46.564Z,73.18
2017-02-11T13:56:59.634Z,73.56
2017-02-11T13:58:12.711Z,73.33
2017-02-11T13:59:26.036Z,73.56
2017-02-11T14:00:38.771Z,73.75
2017-02-11T14:01:51.803Z,73.56
2017-02-11T14:03:04.939Z,73.37
2017-02-11T14:04:17.234Z,72.9
2017-02-11T14:05:30.266Z,72.9
2017-02-11T14:06:43.318Z,73.09
2017-02-11T14:07:56.371Z,73.47
2017-02-11T14:09:09.496Z,73.47
2017-02-11T14:10:22.639Z,73.18
2017-02-11T14:11:35.659Z,73.28
2017-02-11T14:12:48.734Z,73.47
2017-02-11T14:14:01.888Z,73.66
2017-02-11T14:15:15.032Z,73.81
2017-02-11T14:16:28.123Z,74.38
2017-02-11T14:17:41.167Z,74.41
2017-02-11T14:18:54.276Z,74.41
2017-02-11T14:20:07.379Z,73.62
2017-02-11T14:21:20.276Z,73.62
2017-02-11T14:22:33.322Z,74.28
2017-02-11T14:23:45.659Z,74.09
2017-02-11T14:24:58.731Z,74
2017-02-11T14:26:11.384Z,74.47
2017-02-11T14:27:24.402Z,74.47
2017-02-11T14:28:37.521Z,74.85
2017-02-11T14:29:50.548Z,75.13
2017-02-11T14:31:03.669Z,75.13
2017-02-11T14:32:16.689Z,75.51
2017-02-11T14:33:29.759Z,75.04
2017-02-11T14:34:42.830Z,75.23
2017-02-11T14:35:55.966Z,75.23
2017-02-11T14:37:08.729Z,74.95
2017-02-11T14:38:21.855Z,74.09
2017-02-11T14:39:34.565Z,74.28
2017-02-11T14:40:47.240Z,74.38
2017-02-11T14:42:00.306Z,74
2017-02-11T14:43:12.612Z,74.85
2017-02-11T14:44:25.316Z,74.76
2017-02-11T14:45:38.325Z,74.76
2017-02-11T14:46:51.464Z,74.38
2017-02-11T14:48:04.147Z,74.66
2017-02-11T14:49:16.432Z,74.76
2017-02-11T14:50:29.504Z,75.32
2017-02-11T14:51:42.615Z,75.7
2017-02-11T14:52:55.779Z,75.7
2017-02-11T14:54:08.432Z,75.51
2017-02-11T14:55:21.482Z,75.32
2017-02-11T14:56:34.569Z,75.51
2017-02-11T14:57:47.628Z,75.13
2017-02-11T14:59:00.678Z,75.32
2017-02-11T15:00:13.777Z,74.85
2017-02-11T15:01:26.870Z,75.13
2017-02-11T15:02:39.910Z,75.42
2017-02-11T15:03:52.982Z,75.6
2017-02-11T15:05:05.684Z,75.98
2017-02-11T15:06:18.404Z,75.6
2017-02-11T15:07:31.482Z,75.51
2017-02-11T15:08:44.532Z,75.98
2017-02-11T15:09:57.611Z,75.98
2017-02-11T15:11:10.659Z,75.89
2017-02-11T15:12:23.744Z,76.26
2017-02-11T15:13:36.905Z,76.36
2017-02-11T15:14:49.943Z,76.64
2017-02-11T15:16:02.647Z,76.07
2017-02-11T15:17:15.362Z,76.26
2017-02-11T15:18:28.440Z,76.64
2017-02-11T15:19:41.502Z,76.26
2017-02-11T15:20:54.791Z,76.45
2017-02-11T15:22:07.565Z,76.83
2017-02-11T15:23:20.617Z,76.55
2017-02-11T15:24:33.692Z,76.83
2017-02-11T15:25:46.369Z,76.55
2017-02-11T15:26:59.424Z,76.26
2017-02-11T15:28:12.484Z,76.45
2017-02-11T15:29:25.586Z,77.31
2017-02-11T15:30:38.234Z,77.97
2017-02-11T15:31:51.266Z,77.02
2017-02-11T15:33:04.314Z,77.31
2017-02-11T15:34:17.395Z,77.21
2017-02-11T15:35:30.530Z,77.31
2017-02-11T15:36:43.556Z,76.74
2017-02-11T15:37:56.644Z,77.12
2017-02-11T15:39:09.767Z,77.31
2017-02-11T15:40:22.463Z,77.31
2017-02-11T15:41:35.552Z,77.02
2017-02-11T15:42:48.875Z,77.4
2017-02-11T15:44:01.935Z,77.93
2017-02-11T15:45:15.050Z,77.97